Time;durP1;ratioP1;P1;durP2;ratioP2;P2;SDS_P1;SDS_P2;PMS_P1;PMS_P2;Temp;Humidity;BMP_temperature;BMP_pressure;BME280_temperature;BME280_humidity;BME280_pressure;Samples;Min_cycle;Max_cycle;Signal;HPM_P1;HPM_P2
2022/06/02 00:00:32;;;;;;;3.7;3.4;;;;;;;14.33;72.52344;95351.23;;;;
2022/06/02 00:01:40;;;;;;;3.7;3.4;;;;;;;14.33;72.52344;95351.23;;;;
2022/06/02 00:02:49;;;;;;;3.7;3.4;;;;;;;14.33;72.52344;95351.23;;;;
2022/06/02 00:04:18;;;;;;;3.7;3.4;;;;;;;14.33;72.52344;95351.23;;;;
2022/06/02 00:05:30;;;;;;;3.7;3.4;;;;;;;14.33;72.52344;95351.23;;;;
2022/06/02 00:06:48;;;;;;;3.7;3.4;;;;;;;14.33;72.52344;95351.23;;;;
2022/06/02 00:07:55;;;;;;;3.7;3.4;;;;;;;14.33;72.52344;95351.23;;;;
2022/06/02 00:09:10;;;;;;;4.95;3.6;;;;;;;14.35;72.7207;95355.4;;;;
2022/06/02 00:10:23;;;;;;;4.95;3.6;;;;;;;14.35;72.7207;95355.4;;;;
2022/06/02 00:11:33;;;;;;;4.95;3.6;;;;;;;14.35;72.7207;95355.4;;;;
2022/06/02 00:13:00;;;;;;;4.95;3.6;;;;;;;14.35;72.7207;95355.4;;;;
2022/06/02 00:14:14;;;;;;;4.95;3.6;;;;;;;14.35;72.7207;95355.4;;;;
2022/06/02 00:15:19;;;;;;;4.95;3.6;;;;;;;14.35;72.7207;95355.4;;;;
2022/06/02 00:16:25;;;;;;;4.95;3.6;;;;;;;14.35;72.7207;95355.4;;;;
2022/06/02 00:17:31;;;;;;;4.95;3.6;;;;;;;14.35;72.7207;95355.4;;;;
2022/06/02 00:18:41;;;;;;;4.95;3.6;;;;;;;14.35;72.7207;95355.4;;;;
2022/06/02 00:19:51;;;;;;;4.5;3.95;;;;;;;14.35;72.88379;95366.55;;;;
2022/06/02 00:20:59;;;;;;;4.5;3.95;;;;;;;14.35;72.88379;95366.55;;;;
2022/06/02 00:22:09;;;;;;;4.5;3.95;;;;;;;14.35;72.88379;95366.55;;;;
2022/06/02 00:23:16;;;;;;;4.5;3.95;;;;;;;14.35;72.88379;95366.55;;;;
2022/06/02 00:24:39;;;;;;;4.5;3.95;;;;;;;14.35;72.88379;95366.55;;;;
2022/06/02 00:25:45;;;;;;;4.5;3.95;;;;;;;14.35;72.88379;95366.55;;;;
2022/06/02 00:26:54;;;;;;;4.5;3.95;;;;;;;14.35;72.88379;95366.55;;;;
2022/06/02 00:28:08;;;;;;;4.5;3.95;;;;;;;14.35;72.88379;95366.55;;;;
2022/06/02 00:29:19;;;;;;;4.5;3.95;;;;;;;14.35;72.88379;95366.55;;;;
2022/06/02 00:30:27;;;;;;;4.199999;3.9;;;;;;;14.18;73.10547;95382.9;;;;
2022/06/02 00:31:33;;;;;;;4.199999;3.9;;;;;;;14.18;73.10547;95382.9;;;;
2022/06/02 00:32:50;;;;;;;4.199999;3.9;;;;;;;14.18;73.10547;95382.9;;;;
2022/06/02 00:33:58;;;;;;;4.199999;3.9;;;;;;;14.18;73.10547;95382.9;;;;
2022/06/02 00:35:19;;;;;;;4.199999;3.9;;;;;;;14.18;73.10547;95382.9;;;;
2022/06/02 00:36:25;;;;;;;4.199999;3.9;;;;;;;14.18;73.10547;95382.9;;;;
2022/06/02 00:37:32;;;;;;;4.199999;3.9;;;;;;;14.18;73.10547;95382.9;;;;
2022/06/02 00:38:50;;;;;;;4.199999;3.9;;;;;;;14.18;73.10547;95382.9;;;;
2022/06/02 00:39:52;;;;;;;4.199999;3.9;;;;;;;14.18;73.10547;95382.9;;;;
2022/06/02 00:40:53;;;;;;;4.349999;3.95;;;;;;;14.05;73.44141;95403.06;;;;
2022/06/02 00:41:55;;;;;;;4.349999;3.95;;;;;;;14.05;73.44141;95403.06;;;;
2022/06/02 00:43:05;;;;;;;4.349999;3.95;;;;;;;14.05;73.44141;95403.06;;;;
2022/06/02 00:44:55;;;;;;;4.349999;3.95;;;;;;;14.05;73.44141;95403.06;;;;
2022/06/02 00:45:58;;;;;;;4.349999;3.95;;;;;;;14.05;73.44141;95403.06;;;;
2022/06/02 00:47:18;;;;;;;4.349999;3.95;;;;;;;14.05;73.44141;95403.06;;;;
2022/06/02 00:48:30;;;;;;;4.349999;3.95;;;;;;;14.05;73.44141;95403.06;;;;
2022/06/02 00:49:46;;;;;;;4.349999;3.95;;;;;;;14.05;73.44141;95403.06;;;;
2022/06/02 00:51:00;;;;;;;4.349999;3.95;;;;;;;14.05;73.44141;95403.06;;;;
2022/06/02 00:52:04;;;;;;;4.45;4.05;;;;;;;13.84;73.77539;95390.73;;;;
2022/06/02 00:53:25;;;;;;;4.45;4.05;;;;;;;13.84;73.77539;95390.73;;;;
2022/06/02 01:00:04;;;;;;;4.45;4.05;;;;;;;13.84;73.77539;95390.73;;;;
2022/06/02 01:01:11;;;;;;;4.45;4.05;;;;;;;13.84;73.77539;95390.73;;;;
2022/06/02 01:02:16;;;;;;;4.2;3.900001;;;;;;;13.65;74.0459;95401.17;;;;
2022/06/02 01:03:16;;;;;;;4.2;3.900001;;;;;;;13.65;74.0459;95401.17;;;;
2022/06/02 01:04:20;;;;;;;4.2;3.900001;;;;;;;13.65;74.0459;95401.17;;;;
2022/06/02 01:05:21;;;;;;;4.2;3.900001;;;;;;;13.65;74.0459;95401.17;;;;
2022/06/02 01:06:35;;;;;;;4.2;3.900001;;;;;;;13.65;74.0459;95401.17;;;;
2022/06/02 01:07:49;;;;;;;4.2;3.900001;;;;;;;13.65;74.0459;95401.17;;;;
2022/06/02 01:09:01;;;;;;;4.2;3.900001;;;;;;;13.65;74.0459;95401.17;;;;
2022/06/02 01:10:16;;;;;;;4.2;3.900001;;;;;;;13.65;74.0459;95401.17;;;;
2022/06/02 01:11:30;;;;;;;4.2;3.900001;;;;;;;13.65;74.0459;95401.17;;;;
2022/06/02 01:12:42;;;;;;;4.349999;3.95;;;;;;;13.32;74.43457;95414.09;;;;
2022/06/02 01:14:01;;;;;;;4.349999;3.95;;;;;;;13.32;74.43457;95414.09;;;;
2022/06/02 01:15:13;;;;;;;4.349999;3.95;;;;;;;13.32;74.43457;95414.09;;;;
2022/06/02 01:16:26;;;;;;;4.349999;3.95;;;;;;;13.32;74.43457;95414.09;;;;
2022/06/02 01:17:37;;;;;;;4.349999;3.95;;;;;;;13.32;74.43457;95414.09;;;;
2022/06/02 01:18:50;;;;;;;4.349999;3.95;;;;;;;13.32;74.43457;95414.09;;;;
2022/06/02 01:20:08;;;;;;;4.349999;3.95;;;;;;;13.32;74.43457;95414.09;;;;
2022/06/02 01:21:20;;;;;;;4.349999;3.95;;;;;;;13.32;74.43457;95414.09;;;;
2022/06/02 01:22:45;;;;;;;4.349999;3.95;;;;;;;13.32;74.43457;95414.09;;;;
2022/06/02 01:24:05;;;;;;;5;4.6;;;;;;;13.09;74.88379;95428.08;;;;
2022/06/02 01:25:21;;;;;;;5;4.6;;;;;;;13.09;74.88379;95428.08;;;;
2022/06/02 01:26:44;;;;;;;5;4.6;;;;;;;13.09;74.88379;95428.08;;;;
2022/06/02 01:28:02;;;;;;;5;4.6;;;;;;;13.09;74.88379;95428.08;;;;
2022/06/02 01:29:30;;;;;;;5;4.6;;;;;;;13.09;74.88379;95428.08;;;;
2022/06/02 01:31:06;;;;;;;5;4.6;;;;;;;13.09;74.88379;95428.08;;;;
2022/06/02 01:32:15;;;;;;;5;4.6;;;;;;;13.09;74.88379;95428.08;;;;
2022/06/02 01:33:19;;;;;;;5;4.6;;;;;;;13.09;74.88379;95428.08;;;;
2022/06/02 01:34:31;;;;;;;5.1;4.55;;;;;;;12.95;75.30469;95416.77;;;;
2022/06/02 01:35:45;;;;;;;5.1;4.55;;;;;;;12.95;75.30469;95416.77;;;;
2022/06/02 01:36:54;;;;;;;5.1;4.55;;;;;;;12.95;75.30469;95416.77;;;;
2022/06/02 01:38:02;;;;;;;5.1;4.55;;;;;;;12.95;75.30469;95416.77;;;;
2022/06/02 01:39:12;;;;;;;5.1;4.55;;;;;;;12.95;75.30469;95416.77;;;;
2022/06/02 01:40:26;;;;;;;5.1;4.55;;;;;;;12.95;75.30469;95416.77;;;;
2022/06/02 01:41:34;;;;;;;5.1;4.55;;;;;;;12.95;75.30469;95416.77;;;;
2022/06/02 01:42:47;;;;;;;5.1;4.55;;;;;;;12.95;75.30469;95416.77;;;;
2022/06/02 01:43:56;;;;;;;5.1;4.55;;;;;;;12.95;75.30469;95416.77;;;;
2022/06/02 01:45:02;;;;;;;5.300001;4.45;;;;;;;13;75.50781;95411.21;;;;
2022/06/02 01:46:14;;;;;;;5.300001;4.45;;;;;;;13;75.50781;95411.21;;;;
2022/06/02 01:47:28;;;;;;;5.300001;4.45;;;;;;;13;75.50781;95411.21;;;;
2022/06/02 01:48:33;;;;;;;5.300001;4.45;;;;;;;13;75.50781;95411.21;;;;
2022/06/02 01:49:42;;;;;;;5.300001;4.45;;;;;;;13;75.50781;95411.21;;;;
2022/06/02 01:50:57;;;;;;;5.300001;4.45;;;;;;;13;75.50781;95411.21;;;;
2022/06/02 01:52:06;;;;;;;5.300001;4.45;;;;;;;13;75.50781;95411.21;;;;
2022/06/02 01:53:24;;;;;;;5.300001;4.45;;;;;;;13;75.50781;95411.21;;;;
2022/06/02 01:54:39;;;;;;;5.300001;4.45;;;;;;;13;75.50781;95411.21;;;;
2022/06/02 01:55:50;;;;;;;4.699999;4.3;;;;;;;13.02;75.64063;95398.56;;;;
2022/06/02 01:57:06;;;;;;;4.699999;4.3;;;;;;;13.02;75.64063;95398.56;;;;
2022/06/02 01:58:22;;;;;;;4.699999;4.3;;;;;;;13.02;75.64063;95398.56;;;;
2022/06/02 01:59:36;;;;;;;4.699999;4.3;;;;;;;13.02;75.64063;95398.56;;;;
2022/06/02 02:00:49;;;;;;;4.699999;4.3;;;;;;;13.02;75.64063;95398.56;;;;
2022/06/02 02:01:56;;;;;;;4.699999;4.3;;;;;;;13.02;75.64063;95398.56;;;;
2022/06/02 02:03:03;;;;;;;4.699999;4.3;;;;;;;13.02;75.64063;95398.56;;;;
2022/06/02 02:04:17;;;;;;;4.699999;4.3;;;;;;;13.02;75.64063;95398.56;;;;
2022/06/02 02:05:39;;;;;;;4.699999;4.3;;;;;;;13.02;75.64063;95398.56;;;;
2022/06/02 02:06:52;;;;;;;4.65;4.1;;;;;;;13.1;75.77246;95409.27;;;;
2022/06/02 02:08:01;;;;;;;4.65;4.1;;;;;;;13.1;75.77246;95409.27;;;;
2022/06/02 02:09:18;;;;;;;4.65;4.1;;;;;;;13.1;75.77246;95409.27;;;;
2022/06/02 02:10:29;;;;;;;4.65;4.1;;;;;;;13.1;75.77246;95409.27;;;;
2022/06/02 02:11:39;;;;;;;4.65;4.1;;;;;;;13.1;75.77246;95409.27;;;;
2022/06/02 02:12:45;;;;;;;4.65;4.1;;;;;;;13.1;75.77246;95409.27;;;;
2022/06/02 02:14:06;;;;;;;4.65;4.1;;;;;;;13.1;75.77246;95409.27;;;;
2022/06/02 02:15:29;;;;;;;4.65;4.1;;;;;;;13.1;75.77246;95409.27;;;;
2022/06/02 02:16:42;;;;;;;4.65;4.1;;;;;;;13.1;75.77246;95409.27;;;;
2022/06/02 02:17:52;;;;;;;4.050001;3.7;;;;;;;13.09;75.92188;95408.59;;;;
2022/06/02 02:19:41;;;;;;;4.050001;3.7;;;;;;;13.09;75.92188;95408.59;;;;
2022/06/02 02:20:51;;;;;;;4.050001;3.7;;;;;;;13.09;75.92188;95408.59;;;;
2022/06/02 02:22:03;;;;;;;4.050001;3.7;;;;;;;13.09;75.92188;95408.59;;;;
2022/06/02 02:23:10;;;;;;;4.050001;3.7;;;;;;;13.09;75.92188;95408.59;;;;
2022/06/02 02:24:19;;;;;;;4.050001;3.7;;;;;;;13.09;75.92188;95408.59;;;;
2022/06/02 02:25:33;;;;;;;4.050001;3.7;;;;;;;13.09;75.92188;95408.59;;;;
2022/06/02 02:26:42;;;;;;;4.050001;3.7;;;;;;;13.09;75.92188;95408.59;;;;
2022/06/02 02:28:09;;;;;;;4.4;4;;;;;;;13.13;76.09082;95416.91;;;;
2022/06/02 02:29:19;;;;;;;4.4;4;;;;;;;13.13;76.09082;95416.91;;;;
2022/06/02 02:30:28;;;;;;;4.4;4;;;;;;;13.13;76.09082;95416.91;;;;
2022/06/02 02:31:36;;;;;;;4.4;4;;;;;;;13.13;76.09082;95416.91;;;;
2022/06/02 02:32:45;;;;;;;4.4;4;;;;;;;13.13;76.09082;95416.91;;;;
2022/06/02 02:33:59;;;;;;;4.4;4;;;;;;;13.13;76.09082;95416.91;;;;
2022/06/02 02:35:10;;;;;;;4.4;4;;;;;;;13.13;76.09082;95416.91;;;;
2022/06/02 02:36:13;;;;;;;4.4;4;;;;;;;13.13;76.09082;95416.91;;;;
2022/06/02 02:37:23;;;;;;;4.4;4;;;;;;;13.13;76.09082;95416.91;;;;
2022/06/02 02:38:31;;;;;;;4.4;3.9;;;;;;;13.09;76.1709;95412.16;;;;
2022/06/02 02:39:42;;;;;;;4.4;3.9;;;;;;;13.09;76.1709;95412.16;;;;
2022/06/02 02:40:59;;;;;;;4.4;3.9;;;;;;;13.09;76.1709;95412.16;;;;
2022/06/02 02:42:03;;;;;;;4.4;3.9;;;;;;;13.09;76.1709;95412.16;;;;
2022/06/02 02:43:11;;;;;;;4.4;3.9;;;;;;;13.09;76.1709;95412.16;;;;
2022/06/02 02:44:18;;;;;;;4.4;3.9;;;;;;;13.09;76.1709;95412.16;;;;
2022/06/02 02:45:26;;;;;;;4.4;3.9;;;;;;;13.09;76.1709;95412.16;;;;
2022/06/02 02:46:45;;;;;;;4.4;3.9;;;;;;;13.09;76.1709;95412.16;;;;
2022/06/02 02:47:53;;;;;;;4.4;3.9;;;;;;;13.09;76.1709;95412.16;;;;
2022/06/02 02:49:01;;;;;;;4.15;3.85;;;;;;;12.93;76.45703;95404.78;;;;
2022/06/02 02:50:10;;;;;;;4.15;3.85;;;;;;;12.93;76.45703;95404.78;;;;
2022/06/02 02:51:18;;;;;;;4.15;3.85;;;;;;;12.93;76.45703;95404.78;;;;
2022/06/02 02:52:33;;;;;;;4.15;3.85;;;;;;;12.93;76.45703;95404.78;;;;
2022/06/02 02:53:43;;;;;;;4.15;3.85;;;;;;;12.93;76.45703;95404.78;;;;
2022/06/02 02:54:51;;;;;;;4.15;3.85;;;;;;;12.93;76.45703;95404.78;;;;
2022/06/02 02:56:00;;;;;;;4.15;3.85;;;;;;;12.93;76.45703;95404.78;;;;
2022/06/02 02:57:13;;;;;;;4.15;3.85;;;;;;;12.93;76.45703;95404.78;;;;
2022/06/02 02:58:20;;;;;;;4.15;3.85;;;;;;;12.93;76.45703;95404.78;;;;
2022/06/02 02:59:28;;;;;;;4.05;3.65;;;;;;;12.83;76.75293;95419.49;;;;
2022/06/02 03:00:39;;;;;;;4.05;3.65;;;;;;;12.83;76.75293;95419.49;;;;
2022/06/02 03:01:46;;;;;;;4.05;3.65;;;;;;;12.83;76.75293;95419.49;;;;
2022/06/02 03:02:55;;;;;;;4.05;3.65;;;;;;;12.83;76.75293;95419.49;;;;
2022/06/02 03:04:06;;;;;;;4.05;3.65;;;;;;;12.83;76.75293;95419.49;;;;
2022/06/02 03:05:25;;;;;;;4.05;3.65;;;;;;;12.83;76.75293;95419.49;;;;
2022/06/02 03:06:31;;;;;;;4.05;3.65;;;;;;;12.83;76.75293;95419.49;;;;
2022/06/02 03:07:35;;;;;;;4.05;3.65;;;;;;;12.83;76.75293;95419.49;;;;
2022/06/02 03:08:35;;;;;;;4.05;3.65;;;;;;;12.83;76.75293;95419.49;;;;
2022/06/02 03:09:44;;;;;;;4.05;3.65;;;;;;;12.83;76.75293;95419.49;;;;
2022/06/02 03:10:57;;;;;;;4.55;4.149999;;;;;;;12.85;76.86426;95417.43;;;;
2022/06/02 03:12:09;;;;;;;4.55;4.149999;;;;;;;12.85;76.86426;95417.43;;;;
2022/06/02 03:13:18;;;;;;;4.55;4.149999;;;;;;;12.85;76.86426;95417.43;;;;
2022/06/02 03:14:34;;;;;;;4.55;4.149999;;;;;;;12.85;76.86426;95417.43;;;;
2022/06/02 03:15:48;;;;;;;4.55;4.149999;;;;;;;12.85;76.86426;95417.43;;;;
2022/06/02 03:16:53;;;;;;;4.55;4.149999;;;;;;;12.85;76.86426;95417.43;;;;
2022/06/02 03:18:01;;;;;;;4.55;4.149999;;;;;;;12.85;76.86426;95417.43;;;;
2022/06/02 03:19:17;;;;;;;4.55;4.149999;;;;;;;12.85;76.86426;95417.43;;;;
2022/06/02 03:20:29;;;;;;;4.55;4.149999;;;;;;;12.85;76.86426;95417.43;;;;
2022/06/02 03:21:45;;;;;;;4.55;4.149999;;;;;;;12.85;76.86426;95417.43;;;;
2022/06/02 03:22:54;;;;;;;4.55;4.149999;;;;;;;12.85;76.86426;95417.43;;;;
2022/06/02 03:24:12;;;;;;;4.55;4.149999;;;;;;;12.85;76.86426;95417.43;;;;
2022/06/02 03:25:32;;;;;;;4.55;4.149999;;;;;;;12.85;76.86426;95417.43;;;;
2022/06/02 03:26:37;;;;;;;4.55;4.149999;;;;;;;12.85;76.86426;95417.43;;;;
2022/06/02 03:27:49;;;;;;;4.55;4.149999;;;;;;;12.85;76.86426;95417.43;;;;
2022/06/02 03:28:58;;;;;;;4.55;4.149999;;;;;;;12.85;76.86426;95417.43;;;;
2022/06/02 03:30:08;;;;;;;4.55;4.149999;;;;;;;12.85;76.86426;95417.43;;;;
2022/06/02 03:31:17;;;;;;;4.55;4.149999;;;;;;;12.85;76.86426;95417.43;;;;
2022/06/02 03:32:26;;;;;;;4.649999;4.25;;;;;;;12.74;77.24414;95433.28;;;;
2022/06/02 03:33:40;;;;;;;4.649999;4.25;;;;;;;12.74;77.24414;95433.28;;;;
2022/06/02 03:34:55;;;;;;;4.649999;4.25;;;;;;;12.74;77.24414;95433.28;;;;
2022/06/02 03:36:01;;;;;;;4.649999;4.25;;;;;;;12.74;77.24414;95433.28;;;;
2022/06/02 03:37:13;;;;;;;4.649999;4.25;;;;;;;12.74;77.24414;95433.28;;;;
2022/06/02 03:38:28;;;;;;;4.649999;4.25;;;;;;;12.74;77.24414;95433.28;;;;
2022/06/02 03:39:43;;;;;;;4.649999;4.25;;;;;;;12.74;77.24414;95433.28;;;;
2022/06/02 03:40:56;;;;;;;4.649999;4.25;;;;;;;12.74;77.24414;95433.28;;;;
2022/06/02 03:42:10;;;;;;;5.2;4.6;;;;;;;12.66;77.40332;95424.29;;;;
2022/06/02 03:43:24;;;;;;;5.2;4.6;;;;;;;12.66;77.40332;95424.29;;;;
2022/06/02 03:44:34;;;;;;;5.2;4.6;;;;;;;12.66;77.40332;95424.29;;;;
2022/06/02 03:45:50;;;;;;;5.2;4.6;;;;;;;12.66;77.40332;95424.29;;;;
2022/06/02 03:47:09;;;;;;;5.2;4.6;;;;;;;12.66;77.40332;95424.29;;;;
2022/06/02 03:48:23;;;;;;;5.2;4.6;;;;;;;12.66;77.40332;95424.29;;;;
2022/06/02 03:49:45;;;;;;;5.2;4.6;;;;;;;12.66;77.40332;95424.29;;;;
2022/06/02 03:51:01;;;;;;;5.2;4.6;;;;;;;12.66;77.40332;95424.29;;;;
2022/06/02 03:52:18;;;;;;;5.2;4.6;;;;;;;12.66;77.40332;95424.29;;;;
2022/06/02 03:53:37;;;;;;;6;4;;;;;;;12.67;77.55664;95437.73;;;;
2022/06/02 03:54:53;;;;;;;6;4;;;;;;;12.67;77.55664;95437.73;;;;
2022/06/02 03:56:03;;;;;;;6;4;;;;;;;12.67;77.55664;95437.73;;;;
2022/06/02 03:57:16;;;;;;;6;4;;;;;;;12.67;77.55664;95437.73;;;;
2022/06/02 03:58:37;;;;;;;6;4;;;;;;;12.67;77.55664;95437.73;;;;
2022/06/02 04:00:00;;;;;;;6;4;;;;;;;12.67;77.55664;95437.73;;;;
2022/06/02 04:01:11;;;;;;;6;4;;;;;;;12.67;77.55664;95437.73;;;;
2022/06/02 04:02:18;;;;;;;6;4;;;;;;;12.67;77.55664;95437.73;;;;
2022/06/02 04:03:27;;;;;;;6;4;;;;;;;12.67;77.55664;95437.73;;;;
2022/06/02 04:04:41;;;;;;;4.55;4.150001;;;;;;;12.64;77.76758;95445.73;;;;
2022/06/02 04:05:51;;;;;;;4.55;4.150001;;;;;;;12.64;77.76758;95445.73;;;;
2022/06/02 04:07:07;;;;;;;4.55;4.150001;;;;;;;12.64;77.76758;95445.73;;;;
2022/06/02 04:08:23;;;;;;;4.55;4.150001;;;;;;;12.64;77.76758;95445.73;;;;
2022/06/02 04:09:39;;;;;;;4.55;4.150001;;;;;;;12.64;77.76758;95445.73;;;;
2022/06/02 04:10:51;;;;;;;4.55;4.150001;;;;;;;12.64;77.76758;95445.73;;;;
2022/06/02 04:17:32;;;;;;;5.45;5.05;;;;;;;12.95;77.93066;95453.14;;;;
2022/06/02 04:18:42;;;;;;;5.45;5.05;;;;;;;12.95;77.93066;95453.14;;;;
2022/06/02 04:20:59;;;;;;;5.45;5.05;;;;;;;12.95;77.93066;95453.14;;;;
2022/06/02 04:22:10;;;;;;;5.45;5.05;;;;;;;12.95;77.93066;95453.14;;;;
2022/06/02 04:23:24;;;;;;;5.45;5.05;;;;;;;12.95;77.93066;95453.14;;;;
2022/06/02 04:24:45;;;;;;;5.45;5.05;;;;;;;12.95;77.93066;95453.14;;;;
2022/06/02 04:25:57;;;;;;;4.8;4.4;;;;;;;13.24;77.80859;95462.48;;;;
2022/06/02 04:27:12;;;;;;;4.8;4.4;;;;;;;13.24;77.80859;95462.48;;;;
2022/06/02 04:28:20;;;;;;;4.8;4.4;;;;;;;13.24;77.80859;95462.48;;;;
2022/06/02 04:29:30;;;;;;;4.8;4.4;;;;;;;13.24;77.80859;95462.48;;;;
2022/06/02 04:30:57;;;;;;;4.8;4.4;;;;;;;13.24;77.80859;95462.48;;;;
2022/06/02 04:32:10;;;;;;;4.8;4.4;;;;;;;13.24;77.80859;95462.48;;;;
2022/06/02 04:33:22;;;;;;;4.8;4.4;;;;;;;13.24;77.80859;95462.48;;;;
2022/06/02 04:34:32;;;;;;;4.8;4.4;;;;;;;13.24;77.80859;95462.48;;;;
2022/06/02 04:35:41;;;;;;;4.4;4.1;;;;;;;13.63;77.71582;95475.76;;;;
2022/06/02 04:36:51;;;;;;;4.4;4.1;;;;;;;13.63;77.71582;95475.76;;;;
2022/06/02 04:38:02;;;;;;;4.4;4.1;;;;;;;13.63;77.71582;95475.76;;;;
2022/06/02 04:39:14;;;;;;;4.4;4.1;;;;;;;13.63;77.71582;95475.76;;;;
2022/06/02 04:40:23;;;;;;;4.4;4.1;;;;;;;13.63;77.71582;95475.76;;;;
2022/06/02 04:41:38;;;;;;;4.4;4.1;;;;;;;13.63;77.71582;95475.76;;;;
2022/06/02 04:42:46;;;;;;;4.4;4.1;;;;;;;13.63;77.71582;95475.76;;;;
2022/06/02 04:43:55;;;;;;;4.4;4.1;;;;;;;13.63;77.71582;95475.76;;;;
2022/06/02 04:45:06;;;;;;;4.4;4.1;;;;;;;13.63;77.71582;95475.76;;;;
2022/06/02 04:46:13;;;;;;;4.3;3.900001;;;;;;;13.97;77.49414;95472.41;;;;
2022/06/02 04:47:40;;;;;;;4.3;3.900001;;;;;;;13.97;77.49414;95472.41;;;;
2022/06/02 04:48:51;;;;;;;4.3;3.900001;;;;;;;13.97;77.49414;95472.41;;;;
2022/06/02 04:50:00;;;;;;;4.3;3.900001;;;;;;;13.97;77.49414;95472.41;;;;
2022/06/02 04:51:10;;;;;;;4.3;3.900001;;;;;;;13.97;77.49414;95472.41;;;;
2022/06/02 04:52:17;;;;;;;4.3;3.900001;;;;;;;13.97;77.49414;95472.41;;;;
2022/06/02 04:53:27;;;;;;;4.3;3.900001;;;;;;;13.97;77.49414;95472.41;;;;
2022/06/02 04:54:34;;;;;;;4.3;3.900001;;;;;;;13.97;77.49414;95472.41;;;;
2022/06/02 04:55:41;;;;;;;4.3;3.900001;;;;;;;13.97;77.49414;95472.41;;;;
2022/06/02 04:56:58;;;;;;;4.849999;4.349999;;;;;;;14.37;77.37012;95476.07;;;;
2022/06/02 04:58:06;;;;;;;4.849999;4.349999;;;;;;;14.37;77.37012;95476.07;;;;
2022/06/02 04:59:14;;;;;;;4.849999;4.349999;;;;;;;14.37;77.37012;95476.07;;;;
2022/06/02 05:00:20;;;;;;;4.849999;4.349999;;;;;;;14.37;77.37012;95476.07;;;;
2022/06/02 05:01:27;;;;;;;4.849999;4.349999;;;;;;;14.37;77.37012;95476.07;;;;
2022/06/02 05:02:38;;;;;;;4.849999;4.349999;;;;;;;14.37;77.37012;95476.07;;;;
2022/06/02 05:03:48;;;;;;;4.849999;4.349999;;;;;;;14.37;77.37012;95476.07;;;;
2022/06/02 05:05:01;;;;;;;4.849999;4.349999;;;;;;;14.37;77.37012;95476.07;;;;
2022/06/02 05:06:14;;;;;;;4.849999;4.349999;;;;;;;14.37;77.37012;95476.07;;;;
2022/06/02 05:07:23;;;;;;;4.849999;4.349999;;;;;;;14.37;77.37012;95476.07;;;;
2022/06/02 05:08:31;;;;;;;4.35;3.8;;;;;;;14.81;77.15234;95475.6;;;;
2022/06/02 05:10:12;;;;;;;4.35;3.8;;;;;;;14.81;77.15234;95475.6;;;;
2022/06/02 05:11:21;;;;;;;4.35;3.8;;;;;;;14.81;77.15234;95475.6;;;;
2022/06/02 05:12:33;;;;;;;4.35;3.8;;;;;;;14.81;77.15234;95475.6;;;;
2022/06/02 05:13:48;;;;;;;4.35;3.8;;;;;;;14.81;77.15234;95475.6;;;;
2022/06/02 05:15:08;;;;;;;4.35;3.8;;;;;;;14.81;77.15234;95475.6;;;;
2022/06/02 05:16:18;;;;;;;4.35;3.8;;;;;;;14.81;77.15234;95475.6;;;;
2022/06/02 05:17:27;;;;;;;4.35;3.8;;;;;;;14.81;77.15234;95475.6;;;;
2022/06/02 05:19:06;;;;;;;4.099999;3.7;;;;;;;15.33;76.77637;95491.49;;;;
2022/06/02 05:20:37;;;;;;;4.099999;3.7;;;;;;;15.33;76.77637;95491.49;;;;
2022/06/02 05:21:56;;;;;;;4.099999;3.7;;;;;;;15.33;76.77637;95491.49;;;;
2022/06/02 05:23:26;;;;;;;4.099999;3.7;;;;;;;15.33;76.77637;95491.49;;;;
2022/06/02 05:24:50;;;;;;;4.099999;3.7;;;;;;;15.33;76.77637;95491.49;;;;
2022/06/02 05:26:07;;;;;;;4.099999;3.7;;;;;;;15.33;76.77637;95491.49;;;;
2022/06/02 05:27:33;;;;;;;4.099999;3.7;;;;;;;15.33;76.77637;95491.49;;;;
2022/06/02 05:32:53;;;;;;;3.6;3.3;;;;;;;15.79;76.49707;95484.66;;;;
2022/06/02 05:35:13;;;;;;;3.6;3.3;;;;;;;15.79;76.49707;95484.66;;;;
2022/06/02 05:37:33;;;;;;;3.6;3.3;;;;;;;15.79;76.49707;95484.66;;;;
2022/06/02 05:38:44;;;;;;;3.6;3.3;;;;;;;15.79;76.49707;95484.66;;;;
2022/06/02 05:39:55;;;;;;;4;3.6;;;;;;;16.32;75.94531;95502.01;;;;
2022/06/02 05:41:08;;;;;;;4;3.6;;;;;;;16.32;75.94531;95502.01;;;;
2022/06/02 05:42:22;;;;;;;4;3.6;;;;;;;16.32;75.94531;95502.01;;;;
2022/06/02 05:43:32;;;;;;;4;3.6;;;;;;;16.32;75.94531;95502.01;;;;
2022/06/02 05:44:41;;;;;;;4;3.6;;;;;;;16.32;75.94531;95502.01;;;;
2022/06/02 05:45:54;;;;;;;4;3.6;;;;;;;16.32;75.94531;95502.01;;;;
2022/06/02 05:47:09;;;;;;;4;3.6;;;;;;;16.32;75.94531;95502.01;;;;
2022/06/02 05:48:25;;;;;;;4;3.6;;;;;;;16.32;75.94531;95502.01;;;;
2022/06/02 05:49:47;;;;;;;4;3.6;;;;;;;16.32;75.94531;95502.01;;;;
2022/06/02 05:50:55;;;;;;;5.099999;3.65;;;;;;;16.61;75.67871;95505.33;;;;
2022/06/02 05:52:05;;;;;;;5.099999;3.65;;;;;;;16.61;75.67871;95505.33;;;;
2022/06/02 05:53:14;;;;;;;5.099999;3.65;;;;;;;16.61;75.67871;95505.33;;;;
2022/06/02 05:54:28;;;;;;;5.099999;3.65;;;;;;;16.61;75.67871;95505.33;;;;
2022/06/02 05:55:41;;;;;;;5.099999;3.65;;;;;;;16.61;75.67871;95505.33;;;;
2022/06/02 05:56:56;;;;;;;5.099999;3.65;;;;;;;16.61;75.67871;95505.33;;;;
2022/06/02 05:58:08;;;;;;;5.099999;3.65;;;;;;;16.61;75.67871;95505.33;;;;
2022/06/02 05:59:24;;;;;;;5.099999;3.65;;;;;;;16.61;75.67871;95505.33;;;;
2022/06/02 06:00:47;;;;;;;5.099999;3.65;;;;;;;16.61;75.67871;95505.33;;;;
2022/06/02 06:01:59;;;;;;;6.15;3.8;;;;;;;16.97;75.25;95505.33;;;;
2022/06/02 06:03:19;;;;;;;6.15;3.8;;;;;;;16.97;75.25;95505.33;;;;
2022/06/02 06:04:42;;;;;;;6.15;3.8;;;;;;;16.97;75.25;95505.33;;;;
2022/06/02 06:06:02;;;;;;;6.15;3.8;;;;;;;16.97;75.25;95505.33;;;;
2022/06/02 06:07:11;;;;;;;6.15;3.8;;;;;;;16.97;75.25;95505.33;;;;
2022/06/02 06:08:15;;;;;;;6.15;3.8;;;;;;;16.97;75.25;95505.33;;;;
2022/06/02 06:09:32;;;;;;;6.15;3.8;;;;;;;16.97;75.25;95505.33;;;;
2022/06/02 06:10:46;;;;;;;6.15;3.8;;;;;;;16.97;75.25;95505.33;;;;
2022/06/02 06:11:58;;;;;;;5.299999;3.8;;;;;;;17.53;74.44727;95495.26;;;;
2022/06/02 06:13:23;;;;;;;5.299999;3.8;;;;;;;17.53;74.44727;95495.26;;;;
2022/06/02 06:14:43;;;;;;;5.299999;3.8;;;;;;;17.53;74.44727;95495.26;;;;
2022/06/02 06:15:54;;;;;;;5.299999;3.8;;;;;;;17.53;74.44727;95495.26;;;;
2022/06/02 06:17:03;;;;;;;5.299999;3.8;;;;;;;17.53;74.44727;95495.26;;;;
2022/06/02 06:18:18;;;;;;;5.299999;3.8;;;;;;;17.53;74.44727;95495.26;;;;
2022/06/02 06:19:32;;;;;;;5.299999;3.8;;;;;;;17.53;74.44727;95495.26;;;;
2022/06/02 06:20:49;;;;;;;5.299999;3.8;;;;;;;17.53;74.44727;95495.26;;;;
2022/06/02 06:22:01;;;;;;;5.299999;3.8;;;;;;;17.53;74.44727;95495.26;;;;
2022/06/02 06:23:17;;;;;;;5.8;4.55;;;;;;;18.08;73.36914;95487.83;;;;
2022/06/02 06:24:34;;;;;;;5.8;4.55;;;;;;;18.08;73.36914;95487.83;;;;
2022/06/02 06:25:55;;;;;;;5.8;4.55;;;;;;;18.08;73.36914;95487.83;;;;
2022/06/02 06:27:05;;;;;;;5.8;4.55;;;;;;;18.08;73.36914;95487.83;;;;
2022/06/02 06:28:13;;;;;;;5.8;4.55;;;;;;;18.08;73.36914;95487.83;;;;
2022/06/02 06:29:16;;;;;;;5.8;4.55;;;;;;;18.08;73.36914;95487.83;;;;
2022/06/02 06:30:34;;;;;;;5.8;4.55;;;;;;;18.08;73.36914;95487.83;;;;
2022/06/02 06:31:45;;;;;;;5.8;4.55;;;;;;;18.08;73.36914;95487.83;;;;
2022/06/02 06:32:57;;;;;;;5.8;4.05;;;;;;;18.52;72.69629;95504.47;;;;
2022/06/02 06:34:07;;;;;;;5.8;4.05;;;;;;;18.52;72.69629;95504.47;;;;
2022/06/02 06:35:16;;;;;;;5.8;4.05;;;;;;;18.52;72.69629;95504.47;;;;
2022/06/02 06:36:38;;;;;;;5.8;4.05;;;;;;;18.52;72.69629;95504.47;;;;
2022/06/02 06:37:52;;;;;;;5.8;4.05;;;;;;;18.52;72.69629;95504.47;;;;
2022/06/02 06:39:23;;;;;;;5.8;4.05;;;;;;;18.52;72.69629;95504.47;;;;
2022/06/02 06:40:40;;;;;;;5.8;4.05;;;;;;;18.52;72.69629;95504.47;;;;
2022/06/02 06:41:55;;;;;;;5.8;4.05;;;;;;;18.52;72.69629;95504.47;;;;
2022/06/02 06:43:23;;;;;;;5.8;4.05;;;;;;;18.52;72.69629;95504.47;;;;
2022/06/02 06:44:41;;;;;;;5.600001;4.799999;;;;;;;19.48;71.3584;95515.83;;;;
2022/06/02 06:45:45;;;;;;;5.600001;4.799999;;;;;;;19.48;71.3584;95515.83;;;;
2022/06/02 06:46:55;;;;;;;5.600001;4.799999;;;;;;;19.48;71.3584;95515.83;;;;
2022/06/02 06:48:06;;;;;;;5.600001;4.799999;;;;;;;19.48;71.3584;95515.83;;;;
2022/06/02 06:49:14;;;;;;;5.600001;4.799999;;;;;;;19.48;71.3584;95515.83;;;;
2022/06/02 06:50:19;;;;;;;5.600001;4.799999;;;;;;;19.48;71.3584;95515.83;;;;
2022/06/02 06:51:22;;;;;;;5.600001;4.799999;;;;;;;19.48;71.3584;95515.83;;;;
2022/06/02 06:52:37;;;;;;;5.600001;4.799999;;;;;;;19.48;71.3584;95515.83;;;;
2022/06/02 06:53:51;;;;;;;5.600001;4.799999;;;;;;;19.48;71.3584;95515.83;;;;
2022/06/02 06:55:01;;;;;;;9.800001;5.649999;;;;;;;21.18;68.49512;95501.47;;;;
2022/06/02 06:56:14;;;;;;;9.800001;5.649999;;;;;;;21.18;68.49512;95501.47;;;;
2022/06/02 06:57:24;;;;;;;9.800001;5.649999;;;;;;;21.18;68.49512;95501.47;;;;
2022/06/02 06:58:31;;;;;;;9.800001;5.649999;;;;;;;21.18;68.49512;95501.47;;;;
2022/06/02 06:59:42;;;;;;;9.800001;5.649999;;;;;;;21.18;68.49512;95501.47;;;;
2022/06/02 07:00:53;;;;;;;9.800001;5.649999;;;;;;;21.18;68.49512;95501.47;;;;
2022/06/02 07:02:03;;;;;;;9.800001;5.649999;;;;;;;21.18;68.49512;95501.47;;;;
2022/06/02 07:03:17;;;;;;;9.800001;5.649999;;;;;;;21.18;68.49512;95501.47;;;;
2022/06/02 07:04:26;;;;;;;9.800001;5.649999;;;;;;;21.18;68.49512;95501.47;;;;
2022/06/02 07:05:38;;;;;;;9.800001;5.649999;;;;;;;21.18;68.49512;95501.47;;;;